sensor_id;sensor_type;location;lat;lon;timestamp;temperature;humidity
15413;DHT22;7805;49.554;7.632;2023-02-15T00:01:37;3.00;99.90
15413;DHT22;7805;49.554;7.632;2023-02-15T00:04:04;3.00;99.90
15413;DHT22;7805;49.554;7.632;2023-02-15T00:06:30;3.00;99.90
15413;DHT22;7805;49.554;7.632;2023-02-15T00:08:56;3.00;99.90
15413;DHT22;7805;49.554;7.632;2023-02-15T00:11:22;3.00;99.90
15413;DHT22;7805;49.554;7.632;2023-02-15T00:14:11;3.00;99.90
15413;DHT22;7805;49.554;7.632;2023-02-15T00:16:38;2.90;99.90
15413;DHT22;7805;49.554;7.632;2023-02-15T00:19:04;2.90;99.90
15413;DHT22;7805;49.554;7.632;2023-02-15T00:21:31;2.80;99.90
15413;DHT22;7805;49.554;7.632;2023-02-15T00:23:58;2.80;99.90
15413;DHT22;7805;49.554;7.632;2023-02-15T00:26:25;2.70;99.90
15413;DHT22;7805;49.554;7.632;2023-02-15T00:28:51;2.70;99.90
15413;DHT22;7805;49.554;7.632;2023-02-15T00:31:17;2.70;99.90
15413;DHT22;7805;49.554;7.632;2023-02-15T00:33:42;2.70;99.90
15413;DHT22;7805;49.554;7.632;2023-02-15T00:36:09;2.70;99.90
15413;DHT22;7805;49.554;7.632;2023-02-15T00:38:35;2.70;99.90
15413;DHT22;7805;49.554;7.632;2023-02-15T00:41:02;2.70;99.90
15413;DHT22;7805;49.554;7.632;2023-02-15T00:43:29;2.70;99.90
15413;DHT22;7805;49.554;7.632;2023-02-15T00:45:55;2.70;99.90
15413;DHT22;7805;49.554;7.632;2023-02-15T00:48:21;2.60;99.90
15413;DHT22;7805;49.554;7.632;2023-02-15T00:50:55;2.70;99.90
15413;DHT22;7805;49.554;7.632;2023-02-15T00:53:21;2.70;99.90
15413;DHT22;7805;49.554;7.632;2023-02-15T00:55:47;2.70;99.90
15413;DHT22;7805;49.554;7.632;2023-02-15T00:58:13;2.70;99.90
15413;DHT22;7805;49.554;7.632;2023-02-15T01:00:40;2.70;99.90
15413;DHT22;7805;49.554;7.632;2023-02-15T01:03:06;2.70;99.90
15413;DHT22;7805;49.554;7.632;2023-02-15T01:05:32;2.60;99.90
15413;DHT22;7805;49.554;7.632;2023-02-15T01:07:58;2.60;99.90
15413;DHT22;7805;49.554;7.632;2023-02-15T01:10:25;2.60;99.90
15413;DHT22;7805;49.554;7.632;2023-02-15T01:12:51;2.60;99.90
15413;DHT22;7805;49.554;7.632;2023-02-15T01:15:17;2.70;99.90
15413;DHT22;7805;49.554;7.632;2023-02-15T01:17:43;2.60;99.90
15413;DHT22;7805;49.554;7.632;2023-02-15T01:20:11;2.60;99.90
15413;DHT22;7805;49.554;7.632;2023-02-15T01:22:37;2.60;99.90
15413;DHT22;7805;49.554;7.632;2023-02-15T01:25:03;2.60;99.90
15413;DHT22;7805;49.554;7.632;2023-02-15T01:27:28;2.50;99.90
15413;DHT22;7805;49.554;7.632;2023-02-15T01:29:56;2.50;99.90
15413;DHT22;7805;49.554;7.632;2023-02-15T01:32:22;2.50;99.90
15413;DHT22;7805;49.554;7.632;2023-02-15T01:34:47;2.50;99.90
15413;DHT22;7805;49.554;7.632;2023-02-15T01:37:13;2.40;99.90
15413;DHT22;7805;49.554;7.632;2023-02-15T01:39:39;2.40;99.90
15413;DHT22;7805;49.554;7.632;2023-02-15T01:42:04;2.50;99.90
15413;DHT22;7805;49.554;7.632;2023-02-15T01:44:51;2.50;99.90
15413;DHT22;7805;49.554;7.632;2023-02-15T01:47:38;2.50;99.90
15413;DHT22;7805;49.554;7.632;2023-02-15T01:52:54;2.40;99.90
15413;DHT22;7805;49.554;7.632;2023-02-15T01:55:22;2.40;99.90
15413;DHT22;7805;49.554;7.632;2023-02-15T01:57:49;2.50;99.90
15413;DHT22;7805;49.554;7.632;2023-02-15T02:00:16;2.60;99.90
15413;DHT22;7805;49.554;7.632;2023-02-15T02:02:44;2.60;99.90
15413;DHT22;7805;49.554;7.632;2023-02-15T02:05:10;2.50;99.90
15413;DHT22;7805;49.554;7.632;2023-02-15T02:07:42;2.50;99.90
15413;DHT22;7805;49.554;7.632;2023-02-15T02:10:12;2.50;99.90
15413;DHT22;7805;49.554;7.632;2023-02-15T02:12:39;2.50;99.90
15413;DHT22;7805;49.554;7.632;2023-02-15T02:15:07;2.50;99.90
15413;DHT22;7805;49.554;7.632;2023-02-15T02:34:17;2.30;99.90
15413;DHT22;7805;49.554;7.632;2023-02-15T02:37:16;2.30;99.90
15413;DHT22;7805;49.554;7.632;2023-02-15T02:42:58;2.20;99.90
15413;DHT22;7805;49.554;7.632;2023-02-15T02:45:29;2.30;99.90
15413;DHT22;7805;49.554;7.632;2023-02-15T02:48:03;2.40;99.90
15413;DHT22;7805;49.554;7.632;2023-02-15T02:50:31;2.50;99.90
15413;DHT22;7805;49.554;7.632;2023-02-15T02:52:58;2.50;99.90
15413;DHT22;7805;49.554;7.632;2023-02-15T02:55:31;2.50;99.90
15413;DHT22;7805;49.554;7.632;2023-02-15T02:58:25;2.50;99.90
15413;DHT22;7805;49.554;7.632;2023-02-15T03:01:09;2.40;99.90
15413;DHT22;7805;49.554;7.632;2023-02-15T03:03:45;2.40;99.90
15413;DHT22;7805;49.554;7.632;2023-02-15T03:09:11;2.30;99.90
15413;DHT22;7805;49.554;7.632;2023-02-15T03:11:47;2.30;99.90
15413;DHT22;7805;49.554;7.632;2023-02-15T03:14:14;0.70;99.90
15413;DHT22;7805;49.554;7.632;2023-02-15T03:16:42;2.00;99.90
15413;DHT22;7805;49.554;7.632;2023-02-15T03:19:17;2.00;99.90
15413;DHT22;7805;49.554;7.632;2023-02-15T03:21:48;2.00;99.90
15413;DHT22;7805;49.554;7.632;2023-02-15T03:24:32;2.10;99.90
15413;DHT22;7805;49.554;7.632;2023-02-15T03:26:59;2.00;99.90
15413;DHT22;7805;49.554;7.632;2023-02-15T03:29:28;2.00;99.90
15413;DHT22;7805;49.554;7.632;2023-02-15T03:32:00;2.00;99.90
15413;DHT22;7805;49.554;7.632;2023-02-15T03:34:28;2.00;99.90
15413;DHT22;7805;49.554;7.632;2023-02-15T03:37:03;2.10;99.90
15413;DHT22;7805;49.554;7.632;2023-02-15T03:42:22;2.10;99.90
15413;DHT22;7805;49.554;7.632;2023-02-15T03:44:58;2.00;99.90
15413;DHT22;7805;49.554;7.632;2023-02-15T03:47:31;2.10;99.90
15413;DHT22;7805;49.554;7.632;2023-02-15T03:50:08;2.10;99.90
15413;DHT22;7805;49.554;7.632;2023-02-15T03:52:55;2.10;99.90
15413;DHT22;7805;49.554;7.632;2023-02-15T03:55:22;2.10;99.90
15413;DHT22;7805;49.554;7.632;2023-02-15T03:57:48;2.20;99.90
15413;DHT22;7805;49.554;7.632;2023-02-15T04:00:36;2.10;99.90
15413;DHT22;7805;49.554;7.632;2023-02-15T04:03:39;2.10;99.90
15413;DHT22;7805;49.554;7.632;2023-02-15T04:06:05;2.10;99.90
15413;DHT22;7805;49.554;7.632;2023-02-15T04:08:31;2.20;99.90
15413;DHT22;7805;49.554;7.632;2023-02-15T04:11:15;2.30;99.90
15413;DHT22;7805;49.554;7.632;2023-02-15T04:13:41;2.30;99.90
15413;DHT22;7805;49.554;7.632;2023-02-15T04:16:07;1.70;99.90
15413;DHT22;7805;49.554;7.632;2023-02-15T04:18:37;2.50;99.90
15413;DHT22;7805;49.554;7.632;2023-02-15T04:21:23;2.50;99.90
15413;DHT22;7805;49.554;7.632;2023-02-15T04:24:08;2.50;99.90
15413;DHT22;7805;49.554;7.632;2023-02-15T04:26:53;2.50;99.90
15413;DHT22;7805;49.554;7.632;2023-02-15T04:29:20;2.40;99.90
15413;DHT22;7805;49.554;7.632;2023-02-15T04:31:46;2.40;99.90
15413;DHT22;7805;49.554;7.632;2023-02-15T04:34:12;2.40;99.90
15413;DHT22;7805;49.554;7.632;2023-02-15T04:36:39;2.50;99.90
15413;DHT22;7805;49.554;7.632;2023-02-15T04:39:05;2.50;99.90
15413;DHT22;7805;49.554;7.632;2023-02-15T04:41:32;2.60;99.90
15413;DHT22;7805;49.554;7.632;2023-02-15T04:43:57;2.60;99.90
15413;DHT22;7805;49.554;7.632;2023-02-15T04:46:24;2.60;99.90
15413;DHT22;7805;49.554;7.632;2023-02-15T04:48:50;2.70;99.90
15413;DHT22;7805;49.554;7.632;2023-02-15T04:51:15;2.70;99.90
15413;DHT22;7805;49.554;7.632;2023-02-15T04:53:41;2.60;99.90
15413;DHT22;7805;49.554;7.632;2023-02-15T04:56:07;2.60;99.90
15413;DHT22;7805;49.554;7.632;2023-02-15T04:58:32;2.60;99.90
15413;DHT22;7805;49.554;7.632;2023-02-15T05:00:58;2.60;99.90
15413;DHT22;7805;49.554;7.632;2023-02-15T05:03:24;2.70;99.90
15413;DHT22;7805;49.554;7.632;2023-02-15T05:05:50;2.70;99.90
15413;DHT22;7805;49.554;7.632;2023-02-15T05:08:16;2.70;99.90
15413;DHT22;7805;49.554;7.632;2023-02-15T05:10:42;2.70;99.90
15413;DHT22;7805;49.554;7.632;2023-02-15T05:13:07;2.70;99.90
15413;DHT22;7805;49.554;7.632;2023-02-15T05:15:33;2.70;99.90
15413;DHT22;7805;49.554;7.632;2023-02-15T05:17:59;2.70;99.90
15413;DHT22;7805;49.554;7.632;2023-02-15T05:20:24;2.70;99.90
15413;DHT22;7805;49.554;7.632;2023-02-15T05:22:53;2.70;99.90
15413;DHT22;7805;49.554;7.632;2023-02-15T05:25:19;2.70;99.90
15413;DHT22;7805;49.554;7.632;2023-02-15T05:28:03;4.90;99.90
15413;DHT22;7805;49.554;7.632;2023-02-15T05:30:58;2.70;99.90
15413;DHT22;7805;49.554;7.632;2023-02-15T05:33:26;2.70;99.90
15413;DHT22;7805;49.554;7.632;2023-02-15T05:35:51;2.70;99.90
15413;DHT22;7805;49.554;7.632;2023-02-15T05:38:17;2.80;99.90
15413;DHT22;7805;49.554;7.632;2023-02-15T05:40:42;2.80;99.90
15413;DHT22;7805;49.554;7.632;2023-02-15T05:43:08;2.80;99.90
15413;DHT22;7805;49.554;7.632;2023-02-15T05:45:33;2.80;99.90
15413;DHT22;7805;49.554;7.632;2023-02-15T05:47:59;2.80;99.90
15413;DHT22;7805;49.554;7.632;2023-02-15T05:50:25;2.80;99.90
15413;DHT22;7805;49.554;7.632;2023-02-15T05:52:51;2.90;99.90
15413;DHT22;7805;49.554;7.632;2023-02-15T05:55:16;2.90;99.90
15413;DHT22;7805;49.554;7.632;2023-02-15T05:57:42;2.90;99.90
15413;DHT22;7805;49.554;7.632;2023-02-15T06:00:08;2.70;99.90
15413;DHT22;7805;49.554;7.632;2023-02-15T06:02:35;2.60;99.90
15413;DHT22;7805;49.554;7.632;2023-02-15T06:05:01;2.50;99.90
15413;DHT22;7805;49.554;7.632;2023-02-15T06:07:27;2.60;99.90
15413;DHT22;7805;49.554;7.632;2023-02-15T06:09:52;2.60;99.90
15413;DHT22;7805;49.554;7.632;2023-02-15T06:12:18;2.70;99.90
15413;DHT22;7805;49.554;7.632;2023-02-15T06:14:44;2.70;99.90
15413;DHT22;7805;49.554;7.632;2023-02-15T06:17:09;2.70;99.90
15413;DHT22;7805;49.554;7.632;2023-02-15T06:19:35;1.50;99.90
15413;DHT22;7805;49.554;7.632;2023-02-15T06:22:00;2.70;99.90
15413;DHT22;7805;49.554;7.632;2023-02-15T06:24:26;2.80;99.90
15413;DHT22;7805;49.554;7.632;2023-02-15T06:26:51;2.90;99.90
15413;DHT22;7805;49.554;7.632;2023-02-15T06:29:17;2.90;99.90
15413;DHT22;7805;49.554;7.632;2023-02-15T06:31:42;2.90;99.90
15413;DHT22;7805;49.554;7.632;2023-02-15T06:34:08;2.90;99.90
15413;DHT22;7805;49.554;7.632;2023-02-15T06:36:33;2.90;99.90
15413;DHT22;7805;49.554;7.632;2023-02-15T06:38:59;3.00;99.90
15413;DHT22;7805;49.554;7.632;2023-02-15T06:41:25;3.00;99.90
15413;DHT22;7805;49.554;7.632;2023-02-15T06:43:50;3.00;99.90
15413;DHT22;7805;49.554;7.632;2023-02-15T06:46:16;3.00;99.90
15413;DHT22;7805;49.554;7.632;2023-02-15T06:48:42;2.90;99.90
15413;DHT22;7805;49.554;7.632;2023-02-15T06:51:07;2.20;99.90
15413;DHT22;7805;49.554;7.632;2023-02-15T06:53:33;2.90;99.90
15413;DHT22;7805;49.554;7.632;2023-02-15T06:56:03;2.90;99.90
15413;DHT22;7805;49.554;7.632;2023-02-15T06:58:41;2.50;99.90
15413;DHT22;7805;49.554;7.632;2023-02-15T07:01:07;2.50;99.90
15413;DHT22;7805;49.554;7.632;2023-02-15T07:03:33;2.40;99.90
15413;DHT22;7805;49.554;7.632;2023-02-15T07:06:00;2.40;99.90
15413;DHT22;7805;49.554;7.632;2023-02-15T07:08:27;2.60;99.90
15413;DHT22;7805;49.554;7.632;2023-02-15T07:10:54;2.60;99.90
15413;DHT22;7805;49.554;7.632;2023-02-15T07:13:20;2.70;99.90
15413;DHT22;7805;49.554;7.632;2023-02-15T07:15:47;2.70;99.90
15413;DHT22;7805;49.554;7.632;2023-02-15T07:18:13;2.80;99.90
15413;DHT22;7805;49.554;7.632;2023-02-15T07:20:39;2.80;99.90
15413;DHT22;7805;49.554;7.632;2023-02-15T07:23:06;2.80;99.90
15413;DHT22;7805;49.554;7.632;2023-02-15T07:25:33;2.80;99.90
15413;DHT22;7805;49.554;7.632;2023-02-15T07:28:01;2.90;99.90
15413;DHT22;7805;49.554;7.632;2023-02-15T07:30:27;2.90;99.90
15413;DHT22;7805;49.554;7.632;2023-02-15T07:32:57;3.00;99.90
15413;DHT22;7805;49.554;7.632;2023-02-15T07:35:49;2.90;99.90
15413;DHT22;7805;49.554;7.632;2023-02-15T07:38:15;2.90;99.90
15413;DHT22;7805;49.554;7.632;2023-02-15T07:40:41;4.40;99.90
15413;DHT22;7805;49.554;7.632;2023-02-15T07:43:07;2.90;99.90
15413;DHT22;7805;49.554;7.632;2023-02-15T07:45:32;3.00;99.90
15413;DHT22;7805;49.554;7.632;2023-02-15T07:48:00;3.10;99.90
15413;DHT22;7805;49.554;7.632;2023-02-15T07:50:26;3.50;99.90
15413;DHT22;7805;49.554;7.632;2023-02-15T07:52:51;3.00;99.90
15413;DHT22;7805;49.554;7.632;2023-02-15T07:55:17;3.00;99.90
15413;DHT22;7805;49.554;7.632;2023-02-15T07:57:44;3.00;99.90
15413;DHT22;7805;49.554;7.632;2023-02-15T08:00:11;2.90;99.90
15413;DHT22;7805;49.554;7.632;2023-02-15T08:02:38;3.00;99.90
15413;DHT22;7805;49.554;7.632;2023-02-15T08:05:04;2.90;99.90
15413;DHT22;7805;49.554;7.632;2023-02-15T08:07:29;2.80;99.90
15413;DHT22;7805;49.554;7.632;2023-02-15T08:09:55;2.70;99.90
15413;DHT22;7805;49.554;7.632;2023-02-15T08:12:20;2.60;99.90
15413;DHT22;7805;49.554;7.632;2023-02-15T08:14:46;2.60;99.90
15413;DHT22;7805;49.554;7.632;2023-02-15T08:17:11;2.70;99.90
15413;DHT22;7805;49.554;7.632;2023-02-15T08:19:37;2.70;99.90
15413;DHT22;7805;49.554;7.632;2023-02-15T08:22:05;2.80;99.90
15413;DHT22;7805;49.554;7.632;2023-02-15T08:24:33;2.90;99.90
15413;DHT22;7805;49.554;7.632;2023-02-15T08:26:59;3.00;99.90
15413;DHT22;7805;49.554;7.632;2023-02-15T08:29:29;3.10;99.90
15413;DHT22;7805;49.554;7.632;2023-02-15T08:31:57;3.10;99.90
15413;DHT22;7805;49.554;7.632;2023-02-15T08:34:29;3.10;99.90
15413;DHT22;7805;49.554;7.632;2023-02-15T08:36:54;3.10;99.90
15413;DHT22;7805;49.554;7.632;2023-02-15T08:39:20;3.00;99.90
15413;DHT22;7805;49.554;7.632;2023-02-15T08:41:48;3.00;99.90
15413;DHT22;7805;49.554;7.632;2023-02-15T08:44:15;3.00;99.90
15413;DHT22;7805;49.554;7.632;2023-02-15T08:46:43;3.00;99.90
15413;DHT22;7805;49.554;7.632;2023-02-15T08:49:12;2.90;99.90
15413;DHT22;7805;49.554;7.632;2023-02-15T08:51:38;3.00;99.90
15413;DHT22;7805;49.554;7.632;2023-02-15T08:54:07;3.00;99.90
15413;DHT22;7805;49.554;7.632;2023-02-15T08:56:37;3.00;99.90
15413;DHT22;7805;49.554;7.632;2023-02-15T08:59:04;3.10;99.90
15413;DHT22;7805;49.554;7.632;2023-02-15T09:01:31;3.10;99.90
15413;DHT22;7805;49.554;7.632;2023-02-15T09:03:59;3.10;99.90
15413;DHT22;7805;49.554;7.632;2023-02-15T09:06:26;3.20;99.90
15413;DHT22;7805;49.554;7.632;2023-02-15T09:08:53;3.10;99.90
15413;DHT22;7805;49.554;7.632;2023-02-15T09:11:21;3.20;99.90
15413;DHT22;7805;49.554;7.632;2023-02-15T09:13:53;3.20;99.90
15413;DHT22;7805;49.554;7.632;2023-02-15T09:16:19;3.30;99.90
15413;DHT22;7805;49.554;7.632;2023-02-15T09:18:45;3.40;99.90
15413;DHT22;7805;49.554;7.632;2023-02-15T09:21:13;3.20;99.90
15413;DHT22;7805;49.554;7.632;2023-02-15T09:23:44;3.10;99.90
15413;DHT22;7805;49.554;7.632;2023-02-15T09:26:12;3.10;99.90
15413;DHT22;7805;49.554;7.632;2023-02-15T09:28:38;3.00;99.90
15413;DHT22;7805;49.554;7.632;2023-02-15T09:31:09;3.10;99.90
15413;DHT22;7805;49.554;7.632;2023-02-15T09:33:36;2.90;99.90
15413;DHT22;7805;49.554;7.632;2023-02-15T09:36:03;3.00;99.90
15413;DHT22;7805;49.554;7.632;2023-02-15T09:38:29;3.90;99.90
15413;DHT22;7805;49.554;7.632;2023-02-15T09:41:16;3.20;99.90
15413;DHT22;7805;49.554;7.632;2023-02-15T09:44:26;3.30;99.90
15413;DHT22;7805;49.554;7.632;2023-02-15T09:55:21;3.10;99.90
15413;DHT22;7805;49.554;7.632;2023-02-15T10:00:55;3.30;99.90
15413;DHT22;7805;49.554;7.632;2023-02-15T10:03:33;3.40;99.90
15413;DHT22;7805;49.554;7.632;2023-02-15T10:11:33;3.60;99.90
15413;DHT22;7805;49.554;7.632;2023-02-15T10:14:38;3.70;99.90
15413;DHT22;7805;49.554;7.632;2023-02-15T10:20:00;3.80;99.90
15413;DHT22;7805;49.554;7.632;2023-02-15T10:28:16;4.10;99.90
15413;DHT22;7805;49.554;7.632;2023-02-15T10:31:03;4.30;99.90
15413;DHT22;7805;49.554;7.632;2023-02-15T10:46:14;4.90;99.90
15413;DHT22;7805;49.554;7.632;2023-02-15T10:57:38;4.80;99.90
15413;DHT22;7805;49.554;7.632;2023-02-15T11:00:29;4.80;99.90
15413;DHT22;7805;49.554;7.632;2023-02-15T11:03:10;4.90;99.90
15413;DHT22;7805;49.554;7.632;2023-02-15T11:05:51;5.10;99.90
15413;DHT22;7805;49.554;7.632;2023-02-15T11:08:21;5.20;99.90
15413;DHT22;7805;49.554;7.632;2023-02-15T11:10:52;5.30;99.90
15413;DHT22;7805;49.554;7.632;2023-02-15T11:13:21;5.50;99.90
15413;DHT22;7805;49.554;7.632;2023-02-15T11:16:00;5.50;99.90
15413;DHT22;7805;49.554;7.632;2023-02-15T11:18:40;5.70;99.90
15413;DHT22;7805;49.554;7.632;2023-02-15T11:21:17;5.60;99.90
15413;DHT22;7805;49.554;7.632;2023-02-15T11:23:46;5.50;99.90
15413;DHT22;7805;49.554;7.632;2023-02-15T11:31:55;5.50;99.90
15413;DHT22;7805;49.554;7.632;2023-02-15T11:34:36;5.40;99.90
15413;DHT22;7805;49.554;7.632;2023-02-15T11:37:17;5.60;99.90
15413;DHT22;7805;49.554;7.632;2023-02-15T11:39:43;5.60;99.90
15413;DHT22;7805;49.554;7.632;2023-02-15T11:42:19;5.50;99.90
15413;DHT22;7805;49.554;7.632;2023-02-15T11:45:16;5.80;99.90
15413;DHT22;7805;49.554;7.632;2023-02-15T11:47:45;6.20;99.90
15413;DHT22;7805;49.554;7.632;2023-02-15T11:50:16;6.30;99.90
15413;DHT22;7805;49.554;7.632;2023-02-15T11:52:43;6.40;99.90
15413;DHT22;7805;49.554;7.632;2023-02-15T11:55:14;6.70;99.90
15413;DHT22;7805;49.554;7.632;2023-02-15T11:57:45;7.10;99.90
15413;DHT22;7805;49.554;7.632;2023-02-15T12:00:35;7.80;99.90
15413;DHT22;7805;49.554;7.632;2023-02-15T12:03:07;8.40;99.90
15413;DHT22;7805;49.554;7.632;2023-02-15T12:05:36;8.70;99.90
15413;DHT22;7805;49.554;7.632;2023-02-15T12:08:16;9.10;99.90
15413;DHT22;7805;49.554;7.632;2023-02-15T12:11:03;9.60;99.90
15413;DHT22;7805;49.554;7.632;2023-02-15T12:13:31;10.00;99.90
15413;DHT22;7805;49.554;7.632;2023-02-15T12:15:58;10.60;99.90
15413;DHT22;7805;49.554;7.632;2023-02-15T12:18:39;11.00;99.90
15413;DHT22;7805;49.554;7.632;2023-02-15T12:21:12;11.70;99.90
15413;DHT22;7805;49.554;7.632;2023-02-15T12:23:47;11.90;99.90
15413;DHT22;7805;49.554;7.632;2023-02-15T12:26:14;12.10;99.90
15413;DHT22;7805;49.554;7.632;2023-02-15T12:28:44;12.10;99.90
15413;DHT22;7805;49.554;7.632;2023-02-15T12:31:27;12.40;99.90
15413;DHT22;7805;49.554;7.632;2023-02-15T12:33:54;12.70;99.90
15413;DHT22;7805;49.554;7.632;2023-02-15T12:36:24;12.50;99.60
15413;DHT22;7805;49.554;7.632;2023-02-15T12:41:45;12.80;99.90
15413;DHT22;7805;49.554;7.632;2023-02-15T12:44:20;13.20;99.00
15413;DHT22;7805;49.554;7.632;2023-02-15T12:47:06;13.10;99.30
15413;DHT22;7805;49.554;7.632;2023-02-15T12:49:43;13.60;97.50
15413;DHT22;7805;49.554;7.632;2023-02-15T12:54:47;14.70;97.90
15413;DHT22;7805;49.554;7.632;2023-02-15T12:59:50;15.70;96.60
15413;DHT22;7805;49.554;7.632;2023-02-15T13:02:35;15.60;94.90
15413;DHT22;7805;49.554;7.632;2023-02-15T13:07:51;16.20;94.70
15413;DHT22;7805;49.554;7.632;2023-02-15T13:10:32;16.70;94.10
15413;DHT22;7805;49.554;7.632;2023-02-15T13:12:59;17.30;93.70
15413;DHT22;7805;49.554;7.632;2023-02-15T13:15:40;17.80;93.30
15413;DHT22;7805;49.554;7.632;2023-02-15T13:18:12;18.20;89.90
15413;DHT22;7805;49.554;7.632;2023-02-15T13:20:40;18.20;90.30
15413;DHT22;7805;49.554;7.632;2023-02-15T13:23:21;18.50;90.60
15413;DHT22;7805;49.554;7.632;2023-02-15T13:25:49;18.80;87.20
15413;DHT22;7805;49.554;7.632;2023-02-15T13:28:17;19.20;87.70
15413;DHT22;7805;49.554;7.632;2023-02-15T13:30:46;19.30;83.10
15413;DHT22;7805;49.554;7.632;2023-02-15T13:33:26;19.60;83.80
15413;DHT22;7805;49.554;7.632;2023-02-15T13:41:04;21.60;77.10
15413;DHT22;7805;49.554;7.632;2023-02-15T13:43:43;22.20;73.60
15413;DHT22;7805;49.554;7.632;2023-02-15T13:52:20;25.40;59.60
15413;DHT22;7805;49.554;7.632;2023-02-15T14:19:37;24.10;54.10
15413;DHT22;7805;49.554;7.632;2023-02-15T14:30:20;23.10;55.60
15413;DHT22;7805;49.554;7.632;2023-02-15T14:32:54;23.10;56.70
15413;DHT22;7805;49.554;7.632;2023-02-15T14:35:27;22.90;55.40
15413;DHT22;7805;49.554;7.632;2023-02-15T14:41:08;21.80;56.90
15413;DHT22;7805;49.554;7.632;2023-02-15T14:43:58;21.80;56.70
15413;DHT22;7805;49.554;7.632;2023-02-15T14:46:31;21.80;57.40
15413;DHT22;7805;49.554;7.632;2023-02-15T14:49:27;21.60;58.00
15413;DHT22;7805;49.554;7.632;2023-02-15T14:51:54;21.50;57.10
15413;DHT22;7805;49.554;7.632;2023-02-15T15:07:24;20.30;59.40
15413;DHT22;7805;49.554;7.632;2023-02-15T15:10:04;20.10;59.80
15413;DHT22;7805;49.554;7.632;2023-02-15T15:12:44;19.90;60.00
15413;DHT22;7805;49.554;7.632;2023-02-15T15:17:58;19.50;60.70
15413;DHT22;7805;49.554;7.632;2023-02-15T15:20:56;19.10;61.20
15413;DHT22;7805;49.554;7.632;2023-02-15T15:50:15;16.20;72.60
15413;DHT22;7805;49.554;7.632;2023-02-15T15:52:50;15.80;73.80
15413;DHT22;7805;49.554;7.632;2023-02-15T15:55:22;15.50;75.50
15413;DHT22;7805;49.554;7.632;2023-02-15T15:57:52;15.20;78.20
15413;DHT22;7805;49.554;7.632;2023-02-15T16:00:26;14.90;79.30
15413;DHT22;7805;49.554;7.632;2023-02-15T16:02:54;14.60;81.30
15413;DHT22;7805;49.554;7.632;2023-02-15T16:05:21;14.20;83.50
15413;DHT22;7805;49.554;7.632;2023-02-15T16:07:47;13.80;85.80
15413;DHT22;7805;49.554;7.632;2023-02-15T16:10:26;13.30;89.10
15413;DHT22;7805;49.554;7.632;2023-02-15T16:12:52;13.00;91.30
15413;DHT22;7805;49.554;7.632;2023-02-15T16:17:54;12.50;93.70
15413;DHT22;7805;49.554;7.632;2023-02-15T16:20:36;12.10;94.40
15413;DHT22;7805;49.554;7.632;2023-02-15T16:28:28;11.30;98.10
15413;DHT22;7805;49.554;7.632;2023-02-15T16:31:07;11.20;98.30
15413;DHT22;7805;49.554;7.632;2023-02-15T16:33:40;11.10;99.40
15413;DHT22;7805;49.554;7.632;2023-02-15T16:36:10;10.90;99.30
15413;DHT22;7805;49.554;7.632;2023-02-15T16:41:08;10.60;99.90
15413;DHT22;7805;49.554;7.632;2023-02-15T16:43:36;10.40;99.90
15413;DHT22;7805;49.554;7.632;2023-02-15T16:46:10;10.20;99.90
15413;DHT22;7805;49.554;7.632;2023-02-15T16:48:41;10.10;99.90
15413;DHT22;7805;49.554;7.632;2023-02-15T16:51:08;9.80;99.90
15413;DHT22;7805;49.554;7.632;2023-02-15T16:53:34;9.70;99.90
15413;DHT22;7805;49.554;7.632;2023-02-15T16:56:04;9.60;99.90
15413;DHT22;7805;49.554;7.632;2023-02-15T16:58:41;9.60;99.90
15413;DHT22;7805;49.554;7.632;2023-02-15T17:01:09;9.40;99.90
15413;DHT22;7805;49.554;7.632;2023-02-15T17:03:36;9.10;99.90
15413;DHT22;7805;49.554;7.632;2023-02-15T17:06:03;9.00;99.90
15413;DHT22;7805;49.554;7.632;2023-02-15T17:08:43;9.00;99.90
15413;DHT22;7805;49.554;7.632;2023-02-15T17:11:21;8.80;99.90
15413;DHT22;7805;49.554;7.632;2023-02-15T17:16:40;8.40;99.90
15413;DHT22;7805;49.554;7.632;2023-02-15T17:19:15;8.40;99.90
15413;DHT22;7805;49.554;7.632;2023-02-15T17:21:48;8.30;99.90
15413;DHT22;7805;49.554;7.632;2023-02-15T17:27:02;8.20;99.90
15413;DHT22;7805;49.554;7.632;2023-02-15T17:29:40;8.10;99.90
15413;DHT22;7805;49.554;7.632;2023-02-15T17:32:15;8.00;99.90
15413;DHT22;7805;49.554;7.632;2023-02-15T17:37:46;7.70;99.90
15413;DHT22;7805;49.554;7.632;2023-02-15T17:40:24;7.70;99.90
15413;DHT22;7805;49.554;7.632;2023-02-15T17:42:50;7.60;99.90
15413;DHT22;7805;49.554;7.632;2023-02-15T17:45:16;7.70;99.90
15413;DHT22;7805;49.554;7.632;2023-02-15T17:47:42;6.70;99.90
15413;DHT22;7805;49.554;7.632;2023-02-15T17:53:07;7.20;99.90
15413;DHT22;7805;49.554;7.632;2023-02-15T17:55:33;7.20;99.90
15413;DHT22;7805;49.554;7.632;2023-02-15T17:58:12;7.10;99.90
15413;DHT22;7805;49.554;7.632;2023-02-15T18:00:46;7.00;99.90
15413;DHT22;7805;49.554;7.632;2023-02-15T18:03:47;6.90;99.90
15413;DHT22;7805;49.554;7.632;2023-02-15T18:06:32;6.80;99.90
15413;DHT22;7805;49.554;7.632;2023-02-15T18:09:19;6.70;99.90
15413;DHT22;7805;49.554;7.632;2023-02-15T18:12:32;6.70;99.90
15413;DHT22;7805;49.554;7.632;2023-02-15T18:14:59;6.60;99.90
15413;DHT22;7805;49.554;7.632;2023-02-15T18:17:38;6.50;99.90
15413;DHT22;7805;49.554;7.632;2023-02-15T18:20:15;6.40;99.90
15413;DHT22;7805;49.554;7.632;2023-02-15T18:22:42;6.30;99.90
15413;DHT22;7805;49.554;7.632;2023-02-15T18:25:16;6.30;99.90
15413;DHT22;7805;49.554;7.632;2023-02-15T18:27:42;6.20;99.90
15413;DHT22;7805;49.554;7.632;2023-02-15T18:30:12;6.20;99.90
15413;DHT22;7805;49.554;7.632;2023-02-15T18:32:37;6.20;99.90
15413;DHT22;7805;49.554;7.632;2023-02-15T18:35:05;6.10;99.90
15413;DHT22;7805;49.554;7.632;2023-02-15T18:37:32;6.00;99.90
15413;DHT22;7805;49.554;7.632;2023-02-15T18:39:59;6.00;99.90
15413;DHT22;7805;49.554;7.632;2023-02-15T18:42:27;5.80;99.90
15413;DHT22;7805;49.554;7.632;2023-02-15T18:44:59;5.70;99.90
15413;DHT22;7805;49.554;7.632;2023-02-15T18:47:26;5.60;99.90
15413;DHT22;7805;49.554;7.632;2023-02-15T18:49:51;5.60;99.90
15413;DHT22;7805;49.554;7.632;2023-02-15T18:52:20;5.60;99.90
15413;DHT22;7805;49.554;7.632;2023-02-15T18:54:46;5.50;99.90
15413;DHT22;7805;49.554;7.632;2023-02-15T18:57:13;5.50;99.90
15413;DHT22;7805;49.554;7.632;2023-02-15T18:59:39;5.40;99.90
15413;DHT22;7805;49.554;7.632;2023-02-15T19:02:16;5.40;99.90
15413;DHT22;7805;49.554;7.632;2023-02-15T19:04:43;5.30;99.90
15413;DHT22;7805;49.554;7.632;2023-02-15T19:07:27;5.20;99.90
15413;DHT22;7805;49.554;7.632;2023-02-15T19:09:57;5.20;99.90
15413;DHT22;7805;49.554;7.632;2023-02-15T19:12:24;5.10;99.90
15413;DHT22;7805;49.554;7.632;2023-02-15T19:14:49;5.10;99.90
15413;DHT22;7805;49.554;7.632;2023-02-15T19:17:20;4.80;99.90
15413;DHT22;7805;49.554;7.632;2023-02-15T19:19:46;4.70;99.90
15413;DHT22;7805;49.554;7.632;2023-02-15T19:22:13;6.40;99.90
15413;DHT22;7805;49.554;7.632;2023-02-15T19:24:42;4.60;99.90
15413;DHT22;7805;49.554;7.632;2023-02-15T19:29:53;4.50;99.90
15413;DHT22;7805;49.554;7.632;2023-02-15T19:32:19;4.50;99.90
15413;DHT22;7805;49.554;7.632;2023-02-15T19:34:44;4.50;99.90
15413;DHT22;7805;49.554;7.632;2023-02-15T19:37:46;4.50;99.90
15413;DHT22;7805;49.554;7.632;2023-02-15T19:40:34;4.40;99.90
15413;DHT22;7805;49.554;7.632;2023-02-15T19:43:00;4.30;99.90
15413;DHT22;7805;49.554;7.632;2023-02-15T19:45:28;4.30;99.90
15413;DHT22;7805;49.554;7.632;2023-02-15T19:47:54;4.20;99.90
15413;DHT22;7805;49.554;7.632;2023-02-15T19:50:22;4.30;99.90